KJAX/JAX METAR and TAF weather

Enter ICAO airport designator
Station Type Date Time Source
KJAX METAR 2019/02/16 02:56 UTC NOAA

KJAX 160256Z 16006KT 10SM SCT090 OVC250 15/13 A2991 RMK AO2 SLP127 T01500128 58002


Station Type Date Time Source
KJAX Decoded METAR 2019/02/16 02:56 UTC NOAA

JACKSONVILLE INTERNATIONAL, FL, United States (KJAX) 30-30N 81-42W 7M
Feb 15, 2019 - 09:56 PM EST / 2019.02.16 0256 UTC
Wind: from the SSE (160 degrees) at 7 MPH (6 KT):0
Visibility: 10 mile(s):0
Sky conditions: overcast
Temperature: 59.0 F (15.0 C)
Dew Point: 55.0 F (12.8 C)
Relative Humidity: 86%
Pressure (altimeter): 29.91 in. Hg (1012 hPa)
Pressure tendency: 0.01 inches (0.2 hPa) lower than three hours ago
ob: KJAX 160256Z 16006KT 10SM SCT090 OVC250 15/13 A2991 RMK AO2 SLP127 T01500128 58002
cycle: 3

Station Type Date Time Source
KJAX TAF 2019/02/15 18:48 UTC NOAA

TAF KJAX 151747Z 1518/1618 24004KT P6SM BKN200
FM152200 19007KT P6SM SCT100 BKN150
FM160300 22003KT P6SM BKN150
FM161300 22006KT P6SM SCT010 OVC120
FM161600 23009KT P6SM SCT020 BKN045 BKN120


Example: see airport list